Time;durP1;ratioP1;P1;durP2;ratioP2;P2;SDS_P1;SDS_P2;PMS_P1;PMS_P2;Temp;Humidity;BMP_temperature;BMP_pressure;BME280_temperature;BME280_humidity;BME280_pressure;Samples;Min_cycle;Max_cycle;Signal;HPM_P1;HPM_P2
2023/11/02 00:01:07;;;;;;;1.00;0.90;;;;;;;10.17;100.00;94852.50;5038250;28;20204;-71
2023/11/02 00:03:36;;;;;;;1.40;1.00;;;;;;;10.07;100.00;94849.50;5037976;28;20228;-71
2023/11/02 00:06:34;;;;;;;1.30;0.90;;;;;;;10.14;100.00;94846.84;5037890;28;20221;-72
2023/11/02 00:09:33;;;;;;;1.60;1.10;;;;;;;10.15;100.00;94836.09;5037734;28;20731;-71
2023/11/02 00:12:02;;;;;;;1.53;1.23;;;;;;;9.91;100.00;94839.38;5037292;28;20209;-71
2023/11/02 00:14:33;;;;;;;1.30;1.00;;;;;;;9.84;100.00;94840.44;5038036;28;20193;-71
2023/11/02 00:17:00;;;;;;;1.17;1.07;;;;;;;9.61;100.00;94841.88;5038647;28;20213;-71
2023/11/02 00:19:31;;;;;;;1.53;1.10;;;;;;;9.76;100.00;94835.38;5037909;28;20197;-71
2023/11/02 00:22:06;;;;;;;1.60;1.30;;;;;;;9.77;100.00;94831.72;5037079;28;20232;-71
2023/11/02 00:24:35;;;;;;;1.90;1.20;;;;;;;9.60;100.00;94827.09;5038220;28;20233;-71
2023/11/02 00:27:01;;;;;;;1.70;1.00;;;;;;;9.44;100.00;94815.19;5037792;28;20205;-71
2023/11/02 00:29:27;;;;;;;2.33;1.33;;;;;;;9.46;100.00;94805.28;5037779;28;20205;-71
2023/11/02 00:31:55;;;;;;;2.20;1.33;;;;;;;9.44;100.00;94794.16;5037339;28;20209;-71
2023/11/02 00:34:22;;;;;;;1.90;1.10;;;;;;;9.29;100.00;94787.50;5037059;28;20202;-71
2023/11/02 00:36:48;;;;;;;1.43;1.10;;;;;;;9.10;100.00;94783.91;5037628;28;20707;-71
2023/11/02 00:39:17;;;;;;;3.40;1.33;;;;;;;9.42;100.00;94785.69;5036819;28;20201;-71
2023/11/02 00:41:44;;;;;;;1.47;0.97;;;;;;;9.39;100.00;94790.53;5037605;28;20688;-72
2023/11/02 00:44:10;;;;;;;2.77;1.20;;;;;;;9.34;100.00;94777.19;5036462;28;20272;-71
2023/11/02 00:46:37;;;;;;;1.93;1.27;;;;;;;9.20;100.00;94776.41;5037506;28;20225;-71
2023/11/02 00:49:04;;;;;;;1.47;1.17;;;;;;;9.17;100.00;94768.94;5036840;28;21133;-71
2023/11/02 00:51:31;;;;;;;1.43;1.20;;;;;;;9.26;100.00;94759.81;5037263;28;20290;-71
2023/11/02 00:54:00;;;;;;;1.97;1.00;;;;;;;9.34;100.00;94756.16;5036911;28;20201;-71
2023/11/02 00:56:32;;;;;;;1.60;1.13;;;;;;;9.25;100.00;94745.09;5036543;28;21317;-71
2023/11/02 00:59:00;;;;;;;3.10;1.10;;;;;;;8.87;100.00;94745.94;5037008;28;20197;-71
2023/11/02 01:01:28;;;;;;;3.27;1.87;;;;;;;9.07;100.00;94748.53;5035738;28;20216;-71
2023/11/02 01:03:56;;;;;;;5.83;1.53;;;;;;;8.96;100.00;94747.34;5037280;28;20231;-71
2023/11/02 01:06:26;;;;;;;2.53;1.03;;;;;;;9.24;100.00;94738.19;5036774;28;20224;-71
2023/11/02 01:08:55;;;;;;;1.30;1.00;;;;;;;9.07;100.00;94738.81;5037143;28;20217;-71
2023/11/02 01:11:25;;;;;;;1.20;1.03;;;;;;;8.95;100.00;94734.38;5036636;28;20691;-71
2023/11/02 01:13:55;;;;;;;1.23;1.00;;;;;;;9.09;100.00;94726.31;5037487;28;20733;-71
2023/11/02 01:16:21;;;;;;;1.90;1.20;;;;;;;8.93;100.00;94724.09;5036473;28;20256;-71
2023/11/02 01:18:48;;;;;;;4.93;1.13;;;;;;;8.85;100.00;94707.75;5036431;28;20212;-71
2023/11/02 01:21:17;;;;;;;2.67;1.10;;;;;;;9.01;100.00;94689.72;5036915;28;20296;-71
2023/11/02 01:23:43;;;;;;;1.57;1.17;;;;;;;8.77;100.00;94693.00;5036325;28;20225;-71
2023/11/02 01:26:45;;;;;;;2.23;1.23;;;;;;;8.83;100.00;94694.00;5036051;28;20225;-71
2023/11/02 01:29:13;;;;;;;2.50;1.20;;;;;;;8.89;100.00;94682.69;5031288;28;20201;-71
2023/11/02 01:31:41;;;;;;;1.50;1.10;;;;;;;8.71;100.00;94679.88;5037314;28;20209;-71
2023/11/02 01:34:07;;;;;;;1.90;1.00;;;;;;;8.81;100.00;94681.06;5036189;28;20241;-71
2023/11/02 01:36:39;;;;;;;2.13;1.00;;;;;;;9.10;100.00;94665.66;5036929;28;20229;-71
2023/11/02 01:39:44;;;;;;;1.47;1.17;;;;;;;9.09;100.00;94653.53;5035670;28;20198;-71
2023/11/02 01:42:19;;;;;;;1.27;1.00;;;;;;;9.03;100.00;94655.38;5035412;28;20213;-71
2023/11/02 01:44:54;;;;;;;1.27;1.00;;;;;;;8.97;100.00;94645.69;5035669;28;20713;-71
2023/11/02 01:47:39;;;;;;;1.77;1.30;;;;;;;8.91;100.00;94636.81;5035791;28;20197;-71
2023/11/02 01:50:13;;;;;;;1.83;1.10;;;;;;;8.56;100.00;94627.56;5036070;28;20212;-71
2023/11/02 01:52:57;;;;;;;1.10;1.00;;;;;;;8.90;100.00;94626.53;5036151;28;20204;-71
2023/11/02 01:55:36;;;;;;;1.20;1.10;;;;;;;8.75;100.00;94615.44;5036194;28;21080;-71
2023/11/02 01:58:10;;;;;;;1.57;1.30;;;;;;;8.61;100.00;94611.22;5036295;28;20591;-71
2023/11/02 02:00:49;;;;;;;2.57;1.00;;;;;;;8.75;100.00;94613.59;5035835;28;20201;-71
2023/11/02 02:03:27;;;;;;;1.80;1.10;;;;;;;8.99;100.00;94602.44;5035053;28;20229;-71
2023/11/02 02:05:59;;;;;;;11.20;1.50;;;;;;;8.95;100.00;94614.38;5036148;28;20307;-71
2023/11/02 02:08:38;;;;;;;1.73;0.90;;;;;;;8.95;100.00;94610.94;5035309;28;20247;-71
2023/11/02 02:11:16;;;;;;;1.10;0.90;;;;;;;8.95;100.00;94603.03;5035498;28;20212;-71
2023/11/02 02:13:52;;;;;;;1.60;1.10;;;;;;;9.08;100.00;94602.00;5035850;28;20204;-71
2023/11/02 02:16:31;;;;;;;2.30;1.37;;;;;;;9.11;100.00;94596.34;5035341;28;20225;-71
2023/11/02 02:19:07;;;;;;;1.10;1.00;;;;;;;9.02;100.00;94581.00;5035972;28;20205;-71
2023/11/02 02:21:39;;;;;;;1.17;1.00;;;;;;;8.89;100.00;94573.16;5035416;28;20285;-71
2023/11/02 02:24:15;;;;;;;1.23;1.07;;;;;;;8.97;100.00;94559.00;5035261;28;20225;-71
2023/11/02 02:27:03;;;;;;;1.70;1.17;;;;;;;8.91;100.00;94538.81;5035678;28;20801;-71
2023/11/02 02:29:58;;;;;;;1.43;1.17;;;;;;;8.83;100.00;94531.97;5035281;28;20729;-71
2023/11/02 02:32:48;;;;;;;1.00;0.90;;;;;;;8.92;100.00;94524.66;5034706;28;20227;-71
2023/11/02 02:35:22;;;;;;;2.30;1.10;;;;;;;8.97;100.00;94523.03;5035328;28;20745;-71
2023/11/02 02:37:51;;;;;;;1.77;1.17;;;;;;;8.74;100.00;94522.69;5035903;28;21127;-71
2023/11/02 02:40:22;;;;;;;2.27;1.27;;;;;;;8.86;100.00;94525.50;5034601;28;20205;-71
2023/11/02 02:42:51;;;;;;;1.40;0.90;;;;;;;8.74;100.00;94514.03;5034703;28;20686;-71
2023/11/02 02:45:18;;;;;;;1.43;1.13;;;;;;;8.79;100.00;94522.91;5034888;28;20228;-71
2023/11/02 02:47:47;;;;;;;1.83;1.30;;;;;;;8.87;100.00;94512.19;5035238;28;20205;-71
2023/11/02 02:50:20;;;;;;;1.93;1.13;;;;;;;9.03;100.00;94506.44;5035915;28;20207;-71
2023/11/02 02:52:51;;;;;;;1.53;1.07;;;;;;;9.02;100.00;94494.31;5035140;28;20216;-71
2023/11/02 02:55:18;;;;;;;2.77;1.10;;;;;;;9.02;100.00;94478.56;5034869;28;20221;-71
2023/11/02 02:57:49;;;;;;;2.97;1.03;;;;;;;9.00;100.00;94475.34;5035160;28;20212;-71
2023/11/02 03:00:16;;;;;;;1.50;1.20;;;;;;;8.97;100.00;94486.25;5035343;28;20205;-71
2023/11/02 03:02:45;;;;;;;1.67;1.17;;;;;;;8.86;100.00;94497.44;5034517;28;20271;-71
2023/11/02 03:05:14;;;;;;;1.60;1.03;;;;;;;9.14;100.00;94495.28;5035850;28;20233;-71
2023/11/02 03:07:42;;;;;;;1.33;1.17;;;;;;;9.19;100.00;94492.84;5035215;28;20399;-71
2023/11/02 03:10:10;;;;;;;1.50;1.20;;;;;;;9.11;100.00;94483.38;5034846;28;20266;-71
2023/11/02 03:12:42;;;;;;;1.00;0.90;;;;;;;9.18;100.00;94475.44;5033940;28;20741;-71
2023/11/02 03:15:11;;;;;;;1.63;1.10;;;;;;;9.09;100.00;94458.31;5035686;28;20244;-71
2023/11/02 03:18:02;;;;;;;1.03;1.03;;;;;;;9.14;100.00;94440.91;5034939;28;20209;-71
2023/11/02 03:20:29;;;;;;;1.10;1.00;;;;;;;8.80;100.00;94442.31;5035157;28;20217;-71
2023/11/02 03:23:08;;;;;;;3.37;1.00;;;;;;;8.96;100.00;94426.06;5034617;28;20209;-71
2023/11/02 03:25:48;;;;;;;1.13;0.97;;;;;;;9.01;100.00;94423.59;5035239;28;20229;-71
2023/11/02 03:28:23;;;;;;;1.13;1.00;;;;;;;8.99;100.00;94415.16;5034429;28;20205;-71
2023/11/02 03:30:59;;;;;;;1.30;1.20;;;;;;;9.00;100.00;94420.19;5036120;28;20208;-71
2023/11/02 03:33:36;;;;;;;1.47;0.97;;;;;;;8.95;100.00;94429.69;5032113;28;20216;-71
2023/11/02 03:36:07;;;;;;;1.27;1.00;;;;;;;8.90;100.00;94430.34;5034828;28;20236;-71
2023/11/02 03:38:54;;;;;;;1.80;1.00;;;;;;;8.88;100.00;94419.22;5034745;28;20201;-71
2023/11/02 03:41:32;;;;;;;1.70;1.20;;;;;;;8.92;100.00;94403.84;5034263;28;20205;-71
2023/11/02 03:44:06;;;;;;;2.90;1.00;;;;;;;8.94;100.00;94396.59;5035377;28;20240;-71
2023/11/02 03:46:50;;;;;;;2.20;1.10;;;;;;;8.71;100.00;94391.84;5038988;28;20228;-71
2023/11/02 03:49:24;;;;;;;1.67;1.00;;;;;;;8.67;100.00;94380.16;5037922;28;20209;-71
2023/11/02 03:52:05;;;;;;;2.33;1.00;;;;;;;8.63;100.00;94381.59;5037970;28;20208;-71
2023/11/02 03:54:51;;;;;;;2.03;1.63;;;;;;;8.56;100.00;94372.94;5038556;28;20209;-71
2023/11/02 03:57:23;;;;;;;1.10;1.00;;;;;;;8.76;100.00;94367.59;5037426;28;20212;-71
2023/11/02 04:00:04;;;;;;;1.33;1.00;;;;;;;8.64;100.00;94359.59;5037963;28;20220;-71
2023/11/02 04:02:32;;;;;;;2.63;1.40;;;;;;;8.54;100.00;94351.34;5037831;28;20209;-71
2023/11/02 04:05:08;;;;;;;1.83;1.10;;;;;;;8.88;100.00;94348.31;5037854;28;20232;-71
2023/11/02 04:07:44;;;;;;;1.60;1.00;;;;;;;9.01;100.00;94345.59;5038748;28;20211;-71
2023/11/02 04:10:13;;;;;;;1.60;1.00;;;;;;;9.04;100.00;94344.38;5037664;28;20205;-71
2023/11/02 04:12:45;;;;;;;2.00;1.00;;;;;;;9.09;100.00;94332.22;5037193;28;20205;-71
2023/11/02 04:15:15;;;;;;;1.57;1.10;;;;;;;9.03;100.00;94327.03;5038325;28;20239;-71
2023/11/02 04:17:41;;;;;;;1.23;1.13;;;;;;;8.91;100.00;94318.19;5038422;28;20220;-71
2023/11/02 04:20:09;;;;;;;2.27;1.10;;;;;;;9.07;100.00;94307.19;5037262;28;20208;-71
2023/11/02 04:22:36;;;;;;;2.60;1.10;;;;;;;8.91;100.00;94308.53;5037784;28;20275;-71
2023/11/02 04:25:03;;;;;;;2.67;1.10;;;;;;;8.95;100.00;94293.94;5037702;28;20233;-71
2023/11/02 04:27:31;;;;;;;2.07;1.37;;;;;;;9.21;100.00;94281.38;5037150;28;20324;-71
2023/11/02 04:29:58;;;;;;;6.07;2.53;;;;;;;8.96;100.00;94273.72;5037431;28;20254;-71
2023/11/02 04:32:24;;;;;;;2.33;1.40;;;;;;;9.07;100.00;94270.41;5037384;28;20206;-71
2023/11/02 04:34:51;;;;;;;4.57;1.50;;;;;;;9.07;100.00;94259.91;5036864;28;20680;-71
2023/11/02 04:37:18;;;;;;;2.20;1.37;;;;;;;9.04;100.00;94253.25;5037358;28;20615;-71
2023/11/02 04:39:46;;;;;;;2.33;1.17;;;;;;;9.03;100.00;94259.50;5037833;28;20205;-71
2023/11/02 04:42:13;;;;;;;2.30;1.27;;;;;;;9.05;100.00;94259.28;5036807;28;20209;-71
2023/11/02 04:44:40;;;;;;;1.90;1.40;;;;;;;9.10;100.00;94255.03;5037492;28;20229;-71
2023/11/02 04:47:07;;;;;;;7.67;1.80;;;;;;;8.97;100.00;94241.19;5037538;28;20205;-71
2023/11/02 04:49:34;;;;;;;1.77;1.20;;;;;;;9.10;100.00;94216.41;5037573;28;20209;-71
2023/11/02 04:52:02;;;;;;;2.00;1.37;;;;;;;9.10;100.00;94223.50;5036182;28;20201;-71
2023/11/02 04:54:29;;;;;;;2.30;1.40;;;;;;;9.17;100.00;94214.50;5037586;28;21053;-71
2023/11/02 04:56:56;;;;;;;2.27;1.30;;;;;;;9.08;100.00;94209.75;5037700;28;20225;-71
2023/11/02 04:59:22;;;;;;;2.37;1.43;;;;;;;9.00;100.00;94202.16;5037003;28;20209;-71
2023/11/02 05:01:51;;;;;;;2.03;1.50;;;;;;;9.33;100.00;94202.63;5036563;28;20206;-71
2023/11/02 05:04:17;;;;;;;3.33;1.97;;;;;;;9.02;100.00;94194.84;5037347;28;20220;-71
2023/11/02 05:06:44;;;;;;;3.03;1.83;;;;;;;9.06;100.00;94188.16;5037610;28;20881;-71
2023/11/02 05:09:11;;;;;;;1.90;1.60;;;;;;;9.03;100.00;94195.69;5036695;28;20197;-71
2023/11/02 05:11:37;;;;;;;2.07;1.47;;;;;;;8.97;100.00;94192.06;5036065;28;20401;-71
2023/11/02 05:14:04;;;;;;;2.07;1.50;;;;;;;8.91;100.00;94187.72;5037327;28;20292;-71
2023/11/02 05:16:30;;;;;;;2.50;1.73;;;;;;;9.08;100.00;94176.41;5036606;28;20229;-71
2023/11/02 05:18:58;;;;;;;2.33;1.87;;;;;;;9.15;100.00;94171.09;5036375;28;20687;-71
2023/11/02 05:21:24;;;;;;;4.80;1.90;;;;;;;9.06;100.00;94169.75;5036147;28;20208;-71
2023/11/02 05:23:51;;;;;;;2.73;1.70;;;;;;;9.02;100.00;94159.91;5037052;28;20204;-71
2023/11/02 05:26:18;;;;;;;3.37;1.90;;;;;;;9.26;100.00;94133.59;5036428;28;20604;-71
2023/11/02 05:28:45;;;;;;;2.33;1.90;;;;;;;9.25;100.00;94132.78;5037391;28;20201;-71
2023/11/02 05:31:11;;;;;;;3.00;1.67;;;;;;;9.29;100.00;94127.88;5036424;28;20201;-71
2023/11/02 05:33:38;;;;;;;2.57;2.00;;;;;;;9.34;100.00;94122.78;5035729;28;20201;-71
2023/11/02 05:36:07;;;;;;;2.80;1.50;;;;;;;9.49;100.00;94128.47;5036454;28;20235;-71
2023/11/02 05:38:34;;;;;;;3.20;1.70;;;;;;;9.35;100.00;94127.00;5036168;28;20217;-71
2023/11/02 05:41:00;;;;;;;2.47;1.73;;;;;;;9.32;100.00;94122.22;5036324;28;20205;-71
2023/11/02 05:43:27;;;;;;;3.53;1.80;;;;;;;9.31;100.00;94121.38;5035379;28;20212;-71
2023/11/02 05:45:53;;;;;;;2.77;1.70;;;;;;;9.33;100.00;94108.03;5036545;28;20233;-71
2023/11/02 05:48:20;;;;;;;3.40;1.87;;;;;;;9.33;100.00;94108.84;5035297;28;20215;-71
2023/11/02 05:50:46;;;;;;;3.73;1.93;;;;;;;9.27;100.00;94108.91;5036782;28;20208;-71
2023/11/02 05:53:14;;;;;;;2.63;1.60;;;;;;;9.39;100.00;94088.75;5035600;28;20213;-71
2023/11/02 05:55:40;;;;;;;4.57;1.80;;;;;;;9.35;100.00;94084.97;5036114;28;20227;-71
2023/11/02 05:58:07;;;;;;;3.47;1.70;;;;;;;9.29;100.00;94080.56;5036157;28;20208;-71
2023/11/02 06:00:33;;;;;;;2.97;1.77;;;;;;;9.33;100.00;94061.53;5036129;28;20705;-70
2023/11/02 06:03:00;;;;;;;3.10;2.23;;;;;;;9.30;100.00;94053.28;5035497;28;20208;-71
2023/11/02 06:05:26;;;;;;;2.83;1.80;;;;;;;9.37;100.00;94041.66;5035505;28;20714;-71
2023/11/02 06:07:53;;;;;;;2.37;1.87;;;;;;;9.29;100.00;94039.34;5035971;28;20243;-72
2023/11/02 06:10:20;;;;;;;4.77;2.20;;;;;;;9.53;100.00;94029.72;5036366;28;20197;-71
2023/11/02 06:12:46;;;;;;;2.77;1.97;;;;;;;9.42;100.00;94020.78;5035262;28;20201;-71
2023/11/02 06:15:13;;;;;;;2.60;1.63;;;;;;;9.33;100.00;94018.66;5035413;28;20221;-71
2023/11/02 06:17:40;;;;;;;3.73;2.00;;;;;;;9.45;100.00;94006.41;5036697;28;20197;-71
2023/11/02 06:20:07;;;;;;;3.00;1.90;;;;;;;9.54;100.00;93991.91;5035387;28;20197;-72
2023/11/02 06:22:34;;;;;;;3.80;1.87;;;;;;;9.32;100.00;94011.84;5035650;28;20194;-72
2023/11/02 06:25:01;;;;;;;3.47;2.00;;;;;;;9.30;100.00;94021.75;5036200;28;20984;-71
2023/11/02 06:27:29;;;;;;;5.53;3.03;;;;;;;9.54;100.00;94031.34;5035298;28;20205;-71
2023/11/02 06:29:55;;;;;;;4.83;2.47;;;;;;;9.43;100.00;94014.50;5035618;28;20201;-71
2023/11/02 06:32:22;;;;;;;5.97;3.03;;;;;;;9.48;100.00;94004.13;5035227;28;20205;-71
2023/11/02 06:34:49;;;;;;;3.10;2.00;;;;;;;9.51;100.00;93994.97;5035418;28;20228;-71
2023/11/02 06:37:18;;;;;;;3.27;1.60;;;;;;;9.60;100.00;93980.47;5035207;28;20667;-71
2023/11/02 06:39:45;;;;;;;6.50;1.80;;;;;;;9.64;100.00;93966.66;5035614;28;20302;-71
2023/11/02 06:42:13;;;;;;;2.77;1.63;;;;;;;9.33;100.00;93968.75;5035219;28;20236;-71
2023/11/02 06:44:43;;;;;;;2.13;1.17;;;;;;;9.61;100.00;93948.72;5035267;28;20229;-71
2023/11/02 06:47:10;;;;;;;2.97;1.60;;;;;;;9.47;100.00;93944.69;5035542;28;20205;-71
2023/11/02 06:49:36;;;;;;;5.80;1.73;;;;;;;9.51;100.00;93958.16;5035303;28;20862;-71
2023/11/02 06:52:04;;;;;;;2.50;1.50;;;;;;;9.44;100.00;93957.47;5034850;28;20211;-70
2023/11/02 06:54:30;;;;;;;1.57;1.30;;;;;;;9.57;100.00;93941.50;5035412;28;20680;-71
2023/11/02 06:56:57;;;;;;;3.47;1.93;;;;;;;9.55;100.00;93957.50;5035395;28;20217;-71
2023/11/02 06:59:24;;;;;;;3.30;1.87;;;;;;;9.44;100.00;93973.25;5034541;28;20197;-71
2023/11/02 07:01:53;;;;;;;3.27;1.60;;;;;;;9.64;100.00;93985.06;5035542;28;20628;-71
2023/11/02 07:04:19;;;;;;;3.07;1.73;;;;;;;9.56;100.00;93971.44;5035437;28;20201;-71
2023/11/02 07:06:46;;;;;;;2.53;1.73;;;;;;;9.72;100.00;93961.88;5035074;28;20221;-71
2023/11/02 07:09:14;;;;;;;3.20;1.83;;;;;;;9.72;100.00;93956.63;5034621;28;20684;-71
2023/11/02 07:11:40;;;;;;;3.53;1.97;;;;;;;9.84;100.00;93972.44;5035641;28;20675;-71
2023/11/02 07:14:07;;;;;;;2.80;1.97;;;;;;;9.54;100.00;93992.69;5035195;28;20201;-71
2023/11/02 07:16:33;;;;;;;3.60;2.10;;;;;;;9.32;100.00;93993.44;5034834;28;20268;-70
2023/11/02 07:19:02;;;;;;;3.23;2.00;;;;;;;9.09;100.00;94009.09;5034925;28;20577;-71
2023/11/02 07:21:29;;;;;;;2.70;1.80;;;;;;;9.02;100.00;94031.22;5039107;28;20205;-71
2023/11/02 07:23:56;;;;;;;3.80;2.33;;;;;;;8.91;100.00;94035.38;5038540;28;20683;-70
2023/11/02 07:26:22;;;;;;;3.87;1.87;;;;;;;8.96;100.00;94050.47;5038311;28;20229;-70
2023/11/02 07:28:49;;;;;;;3.00;2.00;;;;;;;9.05;100.00;94047.34;5038907;28;20200;-71
2023/11/02 07:31:15;;;;;;;5.17;2.97;;;;;;;8.78;100.00;94093.31;5037524;28;20668;-70
2023/11/02 07:33:42;;;;;;;9.03;2.90;;;;;;;8.78;100.00;94109.06;5039053;28;20575;-70
2023/11/02 07:36:13;;;;;;;4.23;2.77;;;;;;;8.83;100.00;94117.06;5038102;28;20790;-70
2023/11/02 07:38:39;;;;;;;2.67;1.93;;;;;;;8.45;100.00;94117.44;5038661;28;20208;-71
2023/11/02 07:44:28;;;;;;;3.17;1.87;;;;;;;8.81;100.00;94011.47;5036272;28;20252;-71
2023/11/02 07:46:55;;;;;;;3.97;2.30;;;;;;;8.90;100.00;93981.25;5037403;28;20657;-71
2023/11/02 07:49:22;;;;;;;2.47;1.97;;;;;;;8.91;100.00;94008.31;5038223;28;20201;-71
2023/11/02 07:51:49;;;;;;;3.23;2.03;;;;;;;9.28;100.00;94027.25;5038218;28;20202;-71
2023/11/02 07:54:16;;;;;;;3.57;2.03;;;;;;;9.30;100.00;94050.66;5038435;28;20197;-71
2023/11/02 07:56:44;;;;;;;3.97;2.00;;;;;;;9.29;100.00;94086.66;5038619;28;20228;-71
2023/11/02 07:59:11;;;;;;;3.50;1.83;;;;;;;9.41;100.00;94078.81;5038643;28;20201;-71
2023/11/02 08:01:37;;;;;;;5.17;2.53;;;;;;;9.51;100.00;94035.22;5036150;28;20205;-70
2023/11/02 08:04:04;;;;;;;2.40;1.77;;;;;;;9.78;100.00;94013.56;5038859;28;20209;-72
2023/11/02 08:06:32;;;;;;;3.53;2.20;;;;;;;9.97;100.00;93990.66;5039785;28;20240;-71
2023/11/02 08:09:00;;;;;;;2.77;1.77;;;;;;;9.87;100.00;93971.97;5038425;28;20202;-71
2023/11/02 08:11:27;;;;;;;5.57;1.80;;;;;;;9.83;100.00;93942.69;5037660;28;20201;-71
2023/11/02 08:13:53;;;;;;;3.87;1.90;;;;;;;10.01;100.00;93950.50;5037559;28;20212;-71
2023/11/02 08:16:20;;;;;;;4.10;1.90;;;;;;;10.12;100.00;93952.34;5036502;28;20228;-71
2023/11/02 08:18:47;;;;;;;2.73;1.60;;;;;;;9.85;100.00;93976.63;5036853;28;20205;-71
2023/11/02 08:21:14;;;;;;;2.37;1.60;;;;;;;9.89;100.00;93962.81;5036944;28;20201;-71
2023/11/02 08:23:40;;;;;;;2.67;1.60;;;;;;;9.88;100.00;93965.69;5037068;28;20202;-71
2023/11/02 08:26:08;;;;;;;2.30;1.43;;;;;;;10.22;100.00;93959.66;5037114;28;20232;-71
2023/11/02 08:28:35;;;;;;;2.67;1.50;;;;;;;10.44;100.00;93966.75;5036195;28;20201;-72
2023/11/02 08:31:01;;;;;;;3.00;2.07;;;;;;;10.32;100.00;93967.78;5038269;28;20205;-72
2023/11/02 08:33:28;;;;;;;2.10;1.50;;;;;;;10.31;100.00;93982.78;5037032;28;20212;-72
2023/11/02 08:35:55;;;;;;;2.93;2.00;;;;;;;10.39;100.00;94016.66;5037316;28;20232;-71
2023/11/02 08:38:21;;;;;;;2.90;1.90;;;;;;;10.21;100.00;93995.69;5037523;28;20205;-72
2023/11/02 08:40:48;;;;;;;2.93;1.80;;;;;;;10.48;100.00;94002.91;5037184;28;20210;-72
2023/11/02 08:43:16;;;;;;;3.90;1.87;;;;;;;10.56;100.00;93992.00;5036141;28;21142;-72
2023/11/02 08:45:42;;;;;;;2.63;1.83;;;;;;;10.30;100.00;93990.88;5037610;28;20225;-72
2023/11/02 08:48:08;;;;;;;2.73;1.33;;;;;;;10.35;100.00;93937.31;5037011;28;20198;-72
2023/11/02 08:50:36;;;;;;;5.27;1.60;;;;;;;10.53;100.00;93944.28;5036444;28;20201;-72
2023/11/02 08:53:03;;;;;;;3.20;1.57;;;;;;;10.45;100.00;93973.59;5036415;28;20197;-72
2023/11/02 08:55:29;;;;;;;1.93;1.20;;;;;;;10.45;100.00;93947.25;5037552;28;20237;-72
2023/11/02 08:57:56;;;;;;;2.57;1.50;;;;;;;10.48;100.00;93957.34;5036810;28;20197;-72
2023/11/02 09:00:24;;;;;;;2.53;1.40;;;;;;;10.50;100.00;93950.00;5037902;28;20312;-72
2023/11/02 09:02:51;;;;;;;2.30;1.50;;;;;;;10.31;100.00;93937.22;5036021;28;20201;-72
2023/11/02 09:05:17;;;;;;;2.83;1.40;;;;;;;10.30;100.00;93931.16;5036971;28;20308;-72
2023/11/02 09:07:44;;;;;;;2.40;1.60;;;;;;;10.31;100.00;93924.06;5037007;28;20205;-72
2023/11/02 09:10:10;;;;;;;3.57;1.73;;;;;;;10.05;100.00;93941.13;5036416;28;20212;-72
2023/11/02 09:12:37;;;;;;;2.77;1.80;;;;;;;10.37;100.00;93952.88;5036417;28;20220;-72
2023/11/02 09:15:04;;;;;;;3.00;1.50;;;;;;;10.43;100.00;93965.13;5037334;28;20225;-72
2023/11/02 09:17:32;;;;;;;1.80;1.30;;;;;;;10.67;100.00;93966.72;5036533;28;20201;-72
2023/11/02 09:19:58;;;;;;;2.73;1.53;;;;;;;10.47;100.00;93947.84;5036324;28;21026;-72
2023/11/02 09:22:25;;;;;;;2.10;1.70;;;;;;;10.27;100.00;93918.44;5036905;28;20262;-72
2023/11/02 09:24:52;;;;;;;4.33;1.70;;;;;;;10.35;100.00;93910.22;5036512;28;20194;-72
2023/11/02 09:27:18;;;;;;;3.07;1.77;;;;;;;10.46;100.00;93917.28;5036232;28;20229;-72
2023/11/02 09:29:46;;;;;;;2.33;1.60;;;;;;;10.66;100.00;93909.81;5037045;28;20224;-72
2023/11/02 09:32:12;;;;;;;1.73;1.47;;;;;;;10.68;100.00;93905.09;5036559;28;20205;-72
2023/11/02 09:34:40;;;;;;;2.33;1.73;;;;;;;10.85;100.00;93882.25;5036150;28;20219;-72
2023/11/02 09:37:07;;;;;;;2.80;1.87;;;;;;;10.89;100.00;93870.22;5036808;28;21293;-72
2023/11/02 09:39:33;;;;;;;2.93;1.80;;;;;;;10.75;100.00;93871.53;5036371;28;20227;-72
2023/11/02 09:42:00;;;;;;;1.87;1.47;;;;;;;11.09;100.00;93860.84;5035306;28;20210;-72
2023/11/02 09:44:27;;;;;;;2.07;1.53;;;;;;;10.63;100.00;93866.31;5036378;28;20581;-72
2023/11/02 09:46:55;;;;;;;3.17;1.60;;;;;;;10.84;100.00;93860.38;5036381;28;20229;-72
2023/11/02 09:49:21;;;;;;;3.67;1.87;;;;;;;10.81;100.00;93852.16;5035262;28;20205;-72
2023/11/02 09:51:49;;;;;;;2.37;1.93;;;;;;;11.15;100.00;93858.06;5036132;28;20209;-72
2023/11/02 09:54:16;;;;;;;2.80;1.90;;;;;;;10.95;100.00;93823.44;5035808;28;20204;-72
2023/11/02 09:56:43;;;;;;;3.40;2.17;;;;;;;10.65;100.00;93823.94;5036380;28;20760;-72
2023/11/02 09:59:10;;;;;;;2.87;1.80;;;;;;;10.75;100.00;93824.13;5035917;28;20201;-72
2023/11/02 10:01:37;;;;;;;2.53;1.70;;;;;;;10.65;100.00;93843.16;5035972;28;20201;-72
2023/11/02 10:04:03;;;;;;;3.07;2.00;;;;;;;10.56;100.00;93849.03;5035671;28;20193;-72
2023/11/02 10:06:32;;;;;;;2.63;1.57;;;;;;;10.73;100.00;93861.22;5035433;28;20240;-72
2023/11/02 10:09:00;;;;;;;2.60;1.63;;;;;;;11.02;100.00;93881.25;5035046;28;20691;-72
2023/11/02 10:11:27;;;;;;;2.73;1.90;;;;;;;11.00;100.00;93870.94;5035391;28;20295;-72
2023/11/02 10:13:56;;;;;;;2.73;1.80;;;;;;;10.98;100.00;93869.59;5035422;28;21069;-72
2023/11/02 10:16:23;;;;;;;2.40;1.67;;;;;;;11.00;100.00;93867.53;5035139;28;20343;-73
2023/11/02 10:18:50;;;;;;;4.13;2.03;;;;;;;10.93;100.00;93876.59;5036443;28;20263;-72
2023/11/02 10:21:17;;;;;;;2.63;1.50;;;;;;;11.08;100.00;93891.66;5035638;28;20204;-72
2023/11/02 10:23:48;;;;;;;2.97;1.73;;;;;;;11.34;100.00;93885.81;5035527;28;20206;-72
2023/11/02 10:26:16;;;;;;;2.77;1.93;;;;;;;11.19;100.00;93877.63;5035082;28;20237;-72
2023/11/02 10:28:44;;;;;;;2.23;1.63;;;;;;;10.77;100.00;93895.78;5035152;28;20208;-71
2023/11/02 10:31:10;;;;;;;3.07;1.73;;;;;;;10.83;100.00;93871.16;5035212;28;20209;-72
2023/11/02 10:33:37;;;;;;;2.97;1.73;;;;;;;10.87;100.00;93869.63;5035538;28;20205;-72
2023/11/02 10:36:06;;;;;;;4.47;1.80;;;;;;;11.03;100.00;93859.94;5034483;28;20225;-72
2023/11/02 10:38:33;;;;;;;2.67;1.70;;;;;;;10.93;100.00;93848.41;5033233;28;20765;-71
2023/11/02 10:41:00;;;;;;;3.50;1.93;;;;;;;10.83;100.00;93837.69;5035878;28;20200;-72
2023/11/02 10:43:30;;;;;;;3.33;2.10;;;;;;;10.74;100.00;93851.47;5034110;28;20689;-72
2023/11/02 10:45:57;;;;;;;4.33;1.80;;;;;;;10.41;100.00;93867.97;5034994;28;20233;-72
2023/11/02 10:48:26;;;;;;;2.77;1.50;;;;;;;10.36;100.00;93896.81;5034767;28;20201;-72
2023/11/02 10:50:56;;;;;;;3.43;1.73;;;;;;;10.35;100.00;93913.63;5034632;28;20210;-72
2023/11/02 10:53:29;;;;;;;4.07;2.07;;;;;;;10.45;100.00;93915.66;5034753;28;20312;-72
2023/11/02 10:56:00;;;;;;;3.73;1.80;;;;;;;10.73;100.00;93944.69;5038559;28;20221;-72
2023/11/02 10:58:28;;;;;;;2.07;1.87;;;;;;;10.60;100.00;93964.22;5038586;28;20595;-72
2023/11/02 11:00:56;;;;;;;6.33;3.67;;;;;;;10.66;100.00;93980.91;5037909;28;20209;-72
2023/11/02 11:03:25;;;;;;;7.37;3.00;;;;;;;10.66;100.00;93973.78;5038240;28;20198;-72
2023/11/02 11:05:51;;;;;;;4.43;2.40;;;;;;;10.92;100.00;93972.47;5038777;28;20260;-73
2023/11/02 11:08:19;;;;;;;4.43;2.57;;;;;;;11.02;100.00;93971.66;5039267;28;20204;-72
2023/11/02 11:10:47;;;;;;;8.97;4.07;;;;;;;11.10;100.00;93973.13;5038915;28;20205;-72
2023/11/02 11:13:15;;;;;;;8.73;4.30;;;;;;;11.04;100.00;93966.94;5039128;28;20229;-73
2023/11/02 11:15:46;;;;;;;3.87;2.80;;;;;;;11.27;100.00;93972.13;5038645;28;20719;-72
2023/11/02 11:18:13;;;;;;;8.13;3.27;;;;;;;10.99;100.00;93953.66;5038847;28;20205;-72
2023/11/02 11:20:42;;;;;;;9.40;3.10;;;;;;;11.36;100.00;93940.91;5039478;28;20203;-72
2023/11/02 11:23:09;;;;;;;4.97;2.90;;;;;;;11.35;100.00;93942.75;5038828;28;20201;-72
2023/11/02 11:25:59;;;;;;;7.10;3.90;;;;;;;11.49;100.00;93941.41;5038580;28;20232;-72
2023/11/02 11:28:29;;;;;;;7.83;4.10;;;;;;;11.58;100.00;93924.19;5037741;28;20213;-72
2023/11/02 11:30:58;;;;;;;7.47;3.97;;;;;;;11.71;100.00;93934.44;5039465;28;20267;-72
2023/11/02 11:33:50;;;;;;;5.23;3.10;;;;;;;11.91;100.00;93930.28;5037131;28;20892;-72
2023/11/02 11:36:24;;;;;;;6.10;3.40;;;;;;;11.89;100.00;93934.19;5038969;28;20574;-72
2023/11/02 11:38:53;;;;;;;3.67;2.30;;;;;;;11.60;100.00;93944.03;5038367;28;20203;-72
2023/11/02 11:41:42;;;;;;;3.00;2.13;;;;;;;11.92;100.00;93953.00;5039001;28;20212;-72
2023/11/02 11:44:17;;;;;;;6.57;2.30;;;;;;;11.79;100.00;93952.53;5038902;28;20286;-72
2023/11/02 11:46:45;;;;;;;9.23;3.40;;;;;;;11.85;100.00;93955.00;5038957;28;20232;-72